Flight Track Log - Related Links

Times and Time Zones

All times are in EDT time to prevent confusion due to time zone crossing. See the ASH3751 flight status page for this flight to view local times or setup timezone preferences in your user account.

Time Position Orientation Groundspeed Altitude Reporting Facility
EDT Latitude Longitude Course Direction KTS MPH feet Rate Location/Type
Sun 08:44:27 AM 38.9000 -77.4500 270° West 198 228 1,900  Level Potomac TRACON
Sun 08:45:27 AM 38.8500 -77.5000 218° Southwest 241 277 3,800 1,850 Climbing Potomac TRACON
Sun 08:46:27 AM 38.8333 -77.6000 258° West 259 298 5,600 2,100 Climbing Potomac TRACON
Sun 08:47:00 AM 38.7966 -77.9737 287° West  Level FlightAware Approximate
Sun 08:47:27 AM 38.8167 -77.6833 256° West 253 291 8,000  Level Potomac TRACON
Sun 08:48:00 AM 38.8307 -78.1218 287° West  Level FlightAware Approximate
Sun 08:48:21 AM 38.8000 -77.7667 256° West 258 297 10,200  Level Potomac TRACON
Sun 08:49:00 AM 38.8500 -78.2725 270° West  Level FlightAware Approximate
Sun 08:49:33 AM 38.7875 -77.8767 262° West 300 345 11,500  Level Washington Center
Sun 08:50:33 AM 38.8019 -77.9892 279° West 314 361 13,300 1,966 Climbing Washington Center
Sun 08:51:32 AM 38.8289 -78.0992 287° West 319 367 15,400 1,916 Climbing Washington Center
Sun 08:52:32 AM 38.8514 -78.2144 284° West 324 373 17,100 1,636 Climbing Washington Center
Sun 08:53:33 AM 38.8531 -78.3347 271° West 329 379 18,700 1,636 Climbing Washington Center
Sun 08:54:33 AM 38.8522 -78.4519 270° West 334 384 20,400 1,525 Climbing Washington Center
Sun 08:55:31 AM 38.8514 -78.5744 270° West 334 384 21,700 1,361 Climbing Washington Center
Sun 08:56:32 AM 38.8483 -78.6969 268° West 341 392 23,100 1,240 Climbing Washington Center
Sun 08:57:32 AM 38.8472 -78.8222 269° West 346 398 24,200 1,000 Climbing Washington Center
Sun 08:58:32 AM 38.8456 -78.9528 269° West 356 410 25,100 893 Climbing Washington Center
Sun 08:59:33 AM 38.8439 -79.0833 269° West 362 417 26,000 885 Climbing Washington Center
Sun 09:00:34 AM 38.8378 -79.2189 267° West 375 432 26,900 864 Climbing Washington Center
Sun 09:01:31 AM 38.8150 -79.3536 258° West 386 444 27,700 864 Climbing Washington Center
Sun 09:02:32 AM 38.7897 -79.4883 257° West 386 444 28,600 934 Climbing Washington Center
Sun 09:03:33 AM 38.7619 -79.6411 257° West 403 464 29,600 942 Climbing Washington Center
Sun 09:04:33 AM 38.7383 -79.7811 258° West 408 470 30,500 683 Climbing Washington Center
Sun 09:05:36 AM 38.7075 -79.9256 255° West 401 461 31,000 240 Climbing Indianapolis Center
Sun 09:06:38 AM 38.6811 -80.0700 257° West 412 474 31,000 49 Level Indianapolis Center
Sun 09:07:39 AM 38.6536 -80.2153 256° West 417 480 31,100 488 Climbing Indianapolis Center
Sun 09:08:41 AM 38.6261 -80.3583 256° West 417 480 32,000 439 Climbing Indianapolis Center
Sun 09:09:42 AM 38.5989 -80.5008 256° West 412 474 32,000  Level Indianapolis Center
Sun 09:10:44 AM 38.5722 -80.6461 257° West 418 481 32,000  Level Indianapolis Center
Sun 09:11:45 AM 38.5439 -80.7903 256° West 419 482 32,000  Level Indianapolis Center
Sun 09:12:47 AM 38.5167 -80.9356 257° West 419 482 32,000  Level Indianapolis Center
Sun 09:13:48 AM 38.4875 -81.0806 256° West 421 484 32,000 390 Level Indianapolis Center
Sun 09:14:50 AM 38.4581 -81.2258 256° West 419 482 32,800 976 Climbing Indianapolis Center
Sun 09:15:51 AM 38.4247 -81.3961 256° West 409 471 34,000 585 Climbing Indianapolis Center
Sun 09:16:53 AM 38.3967 -81.5364 256° West 404 465 34,000  Level Indianapolis Center
Sun 09:17:54 AM 38.3681 -81.6794 256° West 411 473 34,000  Level Indianapolis Center
Sun 09:18:56 AM 38.3356 -81.8214 254° West 414 476 34,000  Level Indianapolis Center
Sun 09:19:57 AM 38.2967 -81.9606 250° West 415 478 34,000  Level Indianapolis Center
Sun 09:20:59 AM 38.2569 -82.1011 250° West 421 484 34,000  Level Indianapolis Center
Sun 09:22:00 AM 38.2167 -82.2417 250° West 420 483 34,000  Level Indianapolis Center
Sun 09:23:02 AM 38.1767 -82.3831 250° West 424 488 34,000  Level Indianapolis Center
Sun 09:24:04 AM 38.1333 -82.5333 250° West 424 488 34,000  Level Indianapolis Center
Sun 09:25:05 AM 38.0933 -82.6744 250° West 425 489 34,000  Level Indianapolis Center
Sun 09:26:07 AM 38.0528 -82.8158 250° West 426 490 34,000  Level Indianapolis Center
Sun 09:27:08 AM 38.0056 -82.9792 250° West 424 488 34,000  Level Indianapolis Center
Sun 09:28:10 AM 37.9642 -83.1200 250° West 426 490 34,000  Level Indianapolis Center
Sun 09:29:11 AM 37.9231 -83.2603 250° West 426 490 34,000  Level Indianapolis Center
Sun 09:30:13 AM 37.8817 -83.3992 249° West 423 487 34,000  Level Indianapolis Center
Sun 09:31:15 AM 37.8411 -83.5367 250° West 419 482 34,000  Level Indianapolis Center
Sun 09:32:16 AM 37.8006 -83.6733 249° West 417 480 34,000  Level Indianapolis Center
Sun 09:33:18 AM 37.7592 -83.8111 249° West 419 482 34,000  Level Indianapolis Center
Sun 09:34:20 AM 37.7111 -83.9694 249° West 414 476 34,000  Level Indianapolis Center
Sun 09:35:22 AM 37.6694 -84.1056 249° West 415 478 34,000  Level Indianapolis Center
Sun 09:36:23 AM 37.6289 -84.2417 249° West 414 476 34,000  Level Indianapolis Center
Sun 09:37:25 AM 37.5861 -84.3781 248° West 416 479 34,000  Level Indianapolis Center
Sun 09:38:27 AM 37.5450 -84.5161 249° West 418 481 34,000  Level Indianapolis Center
Sun 09:39:28 AM 37.5014 -84.6525 248° West 421 484 34,000 293 Level Indianapolis Center
Sun 09:40:30 AM 37.4517 -84.8122 249° West 421 484 34,600 532 Climbing Indianapolis Center
Sun 09:41:32 AM 37.4081 -84.9503 248° West 422 486 35,100 537 Climbing Indianapolis Center
Sun 09:42:33 AM 37.3672 -85.0856 249° West 415 478 35,700 439 Climbing Indianapolis Center
Sun 09:43:35 AM 37.3244 -85.2206 248° West 415 478 36,000 145 Climbing Indianapolis Center
Sun 09:44:37 AM 37.2808 -85.3556 248° West 417 480 36,000  Level Indianapolis Center
Sun 09:45:38 AM 37.2375 -85.4919 248° West 419 482 36,000  Level Indianapolis Center
Sun 09:46:40 AM 37.1878 -85.6481 248° West 421 484 36,000  Level Indianapolis Center
Sun 09:47:42 AM 37.1436 -85.7853 248° West 421 484 36,000  Level Indianapolis Center
Sun 09:48:44 AM 37.0989 -85.9217 248° West 421 484 36,000  Level Indianapolis Center
Sun 09:49:45 AM 37.0544 -86.0594 248° West 423 487 36,000  Level Indianapolis Center
Sun 09:50:47 AM 37.0100 -86.1964 248° West 423 487 36,000  Level Indianapolis Center
Sun 09:51:49 AM 36.9653 -86.3314 248° West 420 483 36,000  Level Indianapolis Center
Sun 09:52:08 AM 36.9514 -86.3772 249° West 421 484 36,000  Level Memphis Center
Sun 09:53:08 AM 36.8911 -86.5203 242° Southwest 421 484 36,000  Level Memphis Center
Sun 09:54:08 AM 36.8264 -86.6453 237° Southwest 428 493 36,000  Level Memphis Center
Sun 09:55:08 AM 36.7633 -86.7700 238° Southwest 441 507 36,000  Level Memphis Center
Sun 09:56:08 AM 36.6981 -86.8969 237° Southwest 441 507 36,000  Level Memphis Center
Sun 09:57:08 AM 36.6328 -87.0214 237° Southwest 441 507 36,000  Level Memphis Center
Sun 09:58:08 AM 36.5672 -87.1508 238° Southwest 447 514 36,000  Level Memphis Center
Sun 09:59:08 AM 36.4997 -87.2747 236° Southwest 442 509 36,000  Level Memphis Center
Sun 10:00:08 AM 36.4339 -87.3983 237° Southwest 442 509 36,000  Level Memphis Center
Sun 10:01:08 AM 36.3681 -87.5244 237° Southwest 442 509 36,000  Level Memphis Center
Sun 10:02:08 AM 36.3019 -87.6453 236° Southwest 442 509 36,000  Level Memphis Center
Sun 10:03:08 AM 36.2400 -87.7658 238° Southwest 436 502 36,000  Level Memphis Center
Sun 10:04:08 AM 36.1736 -87.8886 236° Southwest 436 502 36,000  Level Memphis Center
Sun 10:05:08 AM 36.1072 -88.0089 236° Southwest 430 495 36,000  Level Memphis Center
Sun 10:06:08 AM 36.0447 -88.1286 237° Southwest 425 489 36,000  Level Memphis Center
Sun 10:07:08 AM 35.9861 -88.2303 235° Southwest 420 483 36,000  Level Memphis Center
Sun 10:08:08 AM 35.9192 -88.3475 235° Southwest 420 483 36,000  Level Memphis Center
Sun 10:09:08 AM 35.8564 -88.4694 238° Southwest 425 489 36,000  Level Memphis Center
Sun 10:10:08 AM 35.7914 -88.5886 236° Southwest 425 489 36,000  Level Memphis Center
Sun 10:11:08 AM 35.7222 -88.7078 234° Southwest 425 489 36,000  Level Memphis Center
Sun 10:12:08 AM 35.6550 -88.8394 238° Southwest 425 489 36,000  Level Memphis Center
Sun 10:13:08 AM 35.5897 -88.9581 236° Southwest 419 482 36,000  Level Memphis Center
Sun 10:14:08 AM 35.5222 -89.0789 236° Southwest 424 488 36,000  Level Memphis Center
Sun 10:15:08 AM 35.4567 -89.1972 236° Southwest 424 488 36,000  Level Memphis Center
Sun 10:16:08 AM 35.3908 -89.3178 236° Southwest 424 488 36,000  Level Memphis Center
Sun 10:17:08 AM 35.3253 -89.4383 236° Southwest 424 488 36,000  Level Memphis Center
Sun 10:18:08 AM 35.2572 -89.5561 235° Southwest 424 488 36,000  Level Memphis Center
Sun 10:19:08 AM 35.1994 -89.6658 237° Southwest 424 488 36,000  Level Memphis Center
Sun 10:20:08 AM 35.1311 -89.7883 236° Southwest 429 494 36,000  Level Memphis Center
Sun 10:21:08 AM 35.0650 -89.9131 237° Southwest 435 501 36,000  Level Memphis Center
Sun 10:22:08 AM 34.9922 -90.0325 233° Southwest 446 513 36,000  Level Memphis Center
Sun 10:23:08 AM 34.9175 -90.1494 232° Southwest 451 519 36,000  Level Memphis Center
Sun 10:24:08 AM 34.8444 -90.2686 233° Southwest 451 519 36,000  Level Memphis Center
Sun 10:25:08 AM 34.7694 -90.3875 232° Southwest 451 519 36,000  Level Memphis Center
Sun 10:26:08 AM 34.6944 -90.5036 232° Southwest 443 510 36,000  Level Memphis Center
Sun 10:27:08 AM 34.6231 -90.6197 233° Southwest 443 510 36,000  Level Memphis Center
Sun 10:28:08 AM 34.5478 -90.7378 232° Southwest 443 510 36,000  Level Memphis Center
Sun 10:29:08 AM 34.4764 -90.8561 234° Southwest 443 510 36,000  Level Memphis Center
Sun 10:30:08 AM 34.3986 -90.9739 231° Southwest 443 510 36,000  Level Memphis Center
Sun 10:31:08 AM 34.3186 -91.1042 233° Southwest 438 504 36,000  Level Memphis Center
Sun 10:32:08 AM 34.2408 -91.2239 232° Southwest 449 517 36,000  Level Memphis Center
Sun 10:33:08 AM 34.1669 -91.3386 232° Southwest 449 517 36,000  Level Memphis Center
Sun 10:34:08 AM 34.0928 -91.4583 233° Southwest 454 522 36,000  Level Memphis Center
Sun 10:35:08 AM 34.0144 -91.5750 231° Southwest 454 522 36,000  Level Memphis Center
Sun 10:36:08 AM 33.9422 -91.6942 234° Southwest 449 517 36,000  Level Memphis Center
Sun 10:37:08 AM 33.8681 -91.8081 232° Southwest 449 517 36,000  Level Memphis Center
Sun 10:39:12 AM 33.7144 -92.0500 233° Southwest 460 529 36,000  Level Fort Worth Center
Sun 10:40:12 AM 33.6400 -92.1644 232° Southwest 450 518 36,000  Level Fort Worth Center
Sun 10:41:12 AM 33.5614 -92.2811 231° Southwest 450 518 36,000  Level Fort Worth Center
Sun 10:42:13 AM 33.4867 -92.3975 232° Southwest 450 518 36,000  Level Fort Worth Center
Sun 10:43:12 AM 33.4100 -92.5164 232° Southwest 450 518 36,000  Level Fort Worth Center
Sun 10:44:12 AM 33.3331 -92.6325 232° Southwest 450 518 36,000  Level Fort Worth Center
Sun 10:45:13 AM 33.2539 -92.7436 230° Southwest 450 518 36,000  Level Fort Worth Center
Sun 10:46:12 AM 33.1594 -92.8428 221° Southwest 445 512 36,000  Level Fort Worth Center
Sun 10:47:12 AM 33.0650 -92.9419 221° Southwest 445 512 36,000  Level Fort Worth Center
Sun 10:48:12 AM 32.9700 -93.0358 220° Southwest 452 520 36,000  Level Fort Worth Center
Sun 10:49:13 AM 32.8756 -93.1344 221° Southwest 452 520 36,000  Level Fort Worth Center
Sun 10:50:12 AM 32.7806 -93.2303 220° Southwest 458 527 36,000  Level Fort Worth Center
Sun 10:51:13 AM 32.6836 -93.3286 220° Southwest 458 527 36,000  Level Fort Worth Center
Sun 10:52:12 AM 32.5867 -93.4267 220° Southwest 463 533 36,000  Level Fort Worth Center
Sun 10:53:12 AM 32.4914 -93.5219 220° Southwest 463 533 36,000  Level Fort Worth Center
Sun 10:54:13 AM 32.3944 -93.6222 221° Southwest 463 533 36,000  Level Fort Worth Center
Sun 10:55:12 AM 32.2989 -93.7169 220° Southwest 469 540 36,000  Level Fort Worth Center
Sun 10:56:12 AM 32.2117 -93.8017 219° Southwest 469 540 36,000  Level Fort Worth Center
Sun 10:57:12 AM 32.1106 -93.9136 223° Southwest 457 526 36,000  Level Fort Worth Center
Sun 10:58:12 AM 32.0153 -94.0153 222° Southwest 457 526 36,000  Level Fort Worth Center
Sun 10:59:12 AM 31.9194 -94.1092 220° Southwest 457 526 36,000  Level Fort Worth Center
Sun 11:00:34 AM 31.7847 -94.2414 220° Southwest 458 527 36,000  Level Houston Center
Sun 11:01:35 AM 31.6886 -94.3378 220° Southwest 456 525 36,000  Level Houston Center
Sun 11:02:37 AM 31.5911 -94.4339 220° Southwest 456 525 36,000  Level Houston Center
Sun 11:03:39 AM 31.4936 -94.5297 220° Southwest 457 526 36,000  Level Houston Center
Sun 11:04:40 AM 31.3964 -94.6253 220° Southwest 456 525 36,000  Level Houston Center
Sun 11:05:42 AM 31.3014 -94.7186 220° Southwest 457 526 36,000  Level Houston Center
Sun 11:06:44 AM 31.2019 -94.8153 220° Southwest 467 537 36,000  Level Houston Center
Sun 11:07:46 AM 31.0911 -94.9244 220° Southwest 456 525 36,000  Level Houston Center
Sun 11:08:48 AM 30.9944 -95.0194 220° Southwest 453 521 36,000  Level Houston Center
Sun 11:09:49 AM 30.8969 -95.1136 220° Southwest 455 524 36,000  Level Houston Center
Sun 11:10:51 AM 30.7994 -95.2083 220° Southwest 457 526 36,000  Level Houston Center
Sun 11:11:53 AM 30.6822 -95.3219 220° Southwest 457 526 36,000  Level Houston Center
Sun 11:12:55 AM 30.5847 -95.4167 220° Southwest 456 525 36,000  Level Houston Center
Sun 11:13:56 AM 30.4925 -95.5028 219° Southwest 456 525 36,000  Level Houston Center
Sun 11:14:58 AM 30.3947 -95.5986 220° Southwest 460 529 36,000  Level Houston Center
Sun 11:16:00 AM 30.2964 -95.6936 220° Southwest 462 532 36,000  Level Houston Center
Sun 11:17:02 AM 30.1783 -95.8053 219° Southwest 460 529 36,000  Level Houston Center
Sun 11:18:04 AM 30.0792 -95.8989 219° Southwest 462 532 36,000  Level Houston Center
Sun 11:19:06 AM 29.9803 -95.9925 219° Southwest 463 533 36,000  Level Houston Center
Sun 11:20:08 AM 29.8783 -96.0892 219° Southwest 463 533 36,000  Level Houston Center
Sun 11:21:10 AM 29.8092 -96.2108 237° Southwest 465 535 36,000  Level Houston Center
Sun 11:22:12 AM 29.7925 -96.3497 262° West 449 517 36,000  Level Houston Center
Sun 11:23:14 AM 29.8025 -96.4908 275° West 447 514 36,000 -339 Level Houston Center
Sun 11:24:16 AM 29.8192 -96.6597 277° West 449 517 35,300 -1,306 Descending Houston Center
Sun 11:25:18 AM 29.8864 -96.7828 302° West 462 532 33,300 -1,935 Descending Houston Center
Sun 11:26:20 AM 29.9636 -96.8967 308° West 454 522 31,300 -1,951 Descending Houston Center
Sun 11:27:21 AM 30.0706 -96.9703 329° Northwest 448 516 29,300 -2,146 Descending Houston Center
Sun 11:28:23 AM 30.1861 -97.0508 329° Northwest 438 504 26,900 -2,371 Descending Houston Center
Sun 11:29:25 AM 30.2714 -97.1417 317° Northwest 422 486 24,400 -1,403 Descending Houston Center
Sun 11:30:27 AM 30.2753 -97.2803 272° West 424 488 24,000 -194 Descending Houston Center
Sun 11:31:29 AM 30.2767 -97.4150 271° West 417 480 24,000 -339 Level Houston Center
Sun 11:32:31 AM 30.2167 -97.5211 237° Southwest 402 463 23,300 -1,597 Descending Houston Center
Sun 11:33:33 AM 30.1331 -97.6128 223° Southwest 405 466 20,700 -2,855 Descending Houston Center
Sun 11:34:35 AM 30.0453 -97.7058 223° Southwest 372 428 17,400 -2,974 Descending Houston Center
Sun 11:35:30 AM 29.9806 -97.7742 222° Southwest 331 381 14,900 -2,276 Descending Houston Center
Sun 11:36:31 AM 29.9139 -97.8428 222° Southwest 320 368 13,000 -1,033 Descending Houston Center
Sun 11:37:32 AM 29.8644 -97.9431 240° Southwest 345 397 12,800 -639 Descending Houston Center
Sun 11:38:33 AM 29.8250 -98.0347 244° Southwest 317 365 11,700 -1,252 Descending Houston Center
Sun 11:39:27 AM 29.7922 -98.1111 244° Southwest 286 329 10,400 -1,583 Descending Houston Center
Sun 11:39:45 AM 29.7808 -98.1375 244° Southwest 294 338 9,800 -1,869 Descending Houston Center
Sun 11:40:28 AM 29.7561 -98.1950 244° Southwest 288 331 8,500 -1,742 Descending Houston Center
Sun 11:40:47 AM 29.7453 -98.2208 244° Southwest 293 337 8,000 -1,433 Descending Houston Center
Sun 11:41:35 AM 29.7183 -98.2864 245° Southwest 293 337 6,900 -1,101 Descending Houston Center
Sun 11:42:36 AM 29.6856 -98.3625 244° Southwest 273 314 6,000 -701 Descending Houston Center
Sun 11:42:52 AM 29.6756 -98.3858 244° Southwest 267 307 6,000 -327 Level Houston Center
Sun 11:43:31 AM 29.6561 -98.4311 244° Southwest 257 296 5,700 -774 Descending Houston Center
Sun 11:43:54 AM 29.6517 -98.4606 260° West 256 295 5,200 -1,400 Descending Houston Center
Sun 11:44:31 AM 29.6781 -98.5100 302° West 263 303 4,300 -1,258 Descending Houston Center
Sun 11:44:56 AM 29.6944 -98.5339 308° West 261 300 3,900 -984 Descending Houston Center
Sun 11:45:32 AM 29.7197 -98.5750 305° West 250 288 3,300 -871 Descending Houston Center
Sun 11:45:58 AM 29.7169 -98.6028 263° West 232 267 3,000 -295 Descending Houston Center
Sun 11:46:33 AM 29.6919 -98.6142 202° Southwest 177 204 3,000  Level Houston Center
Sun 11:47:00 AM 29.6694 -98.6156 183° South 183 211 3,000  Level Houston Center
Sun 11:47:40 AM 29.6378 -98.5967 153° Southeast 181 208 3,000  Level Houston Center
Sun 11:48:02 AM 29.6256 -98.5853 141° Southeast 182 209 3,000  Level Houston Center

Login

Don't have an account? Register now (free) for customized features, flight alerts, and more!